Latest Weather Observations for Pearce

IDW60901

Issued at 4:11 pm WST Saturday 20 April 2024 (issued every 10 minutes, with the page automatically refreshed every 10 minutes)

About weather observations | Map of Perth area stations | Latest observations for Perth area | Other Formats
Station Details ID: 009053 Name: PEARCE RAAF Lat: -31.67 Lon: 116.02 Height: 40.0 m
Data from the previous 72 hours. | See also: Recent months at Pearce
Date/Time
WST
Temp
°C
App
Temp
°C
Dew
Point
°C
Rel
Hum
%
Delta-T
°C
Wind Press
QNH
hPa
Press
MSL
hPa
Rain since
9am
mm
Dir  Spd
km/h
Gust
km/h
Spd
kts
Gust
kts
20/04:00pm 31.1 26.8 -1.6 12 15.3 W 11 15 6 8 1020.3 1020.1 0.0
20/03:30pm 30.5 26.9 -2.1 12 15.1 SSE 7 13 4 7 1020.4 1020.2 0.0
20/03:00pm 30.8 26.8 -1.9 12 15.2 SW 9 15 5 8 1020.6 1020.4 0.0
20/02:30pm 31.1 27.6 -1.6 12 15.3 WNW 7 19 4 10 1020.7 1020.5 0.0
20/02:00pm 30.5 27.2 -1.0 13 14.8 WNW 6 13 3 7 1021.0 1020.9 0.0
20/01:30pm 30.0 26.1 -1.4 13 14.7 WSW 9 15 5 8 1021.3 1021.2 0.0
20/01:00pm 29.8 25.7 -0.5 14 14.3 ENE 11 19 6 10 1021.8 1021.7 0.0
20/12:30pm 29.1 24.6 -0.1 15 13.9 E 13 20 7 11 1022.2 1022.1 0.0
20/12:00pm 29.2 25.9 -0.1 15 13.9 N 7 15 4 8 1022.7 1022.6 0.0
20/11:30am 29.0 25.0 0.7 16 13.6 N 11 19 6 10 1023.3 1023.2 0.0
20/11:00am 28.2 23.3 1.7 18 12.8 N 17 24 9 13 1023.7 1023.6 0.0
20/10:30am 27.4 22.2 2.5 20 12.2 N 19 30 10 16 1024.0 1023.9 0.0
20/10:00am 25.6 20.9 2.9 23 11.0 N 17 26 9 14 1024.2 1024.1 0.0
20/09:30am 24.7 20.0 3.4 25 10.4 NNE 17 20 9 11 1024.4 1024.3 0.0
20/09:00am 23.8 20.0 3.7 27 9.8 N 13 19 7 10 1024.5 1024.4 0.0
20/08:30am 22.2 18.0 3.8 30 8.9 NNE 15 26 8 14 1024.4 1024.3 0.0
20/08:00am 20.8 17.3 3.5 32 8.2 NNE 11 19 6 10 1024.2 1024.1 0.0
20/07:30am 19.5 15.9 3.2 34 7.7 N 11 19 6 10 1023.8 1023.7 0.0
20/07:00am 18.3 15.1 3.0 36 7.1 N 9 15 5 8 1023.6 1023.5 0.0
20/06:30am 18.8 15.1 2.6 34 7.5 NNE 11 20 6 11 1023.4 1023.3 0.0
20/06:00am 18.4 15.1 2.3 34 7.3 NNE 9 15 5 8 1023.3 1023.2 0.0
20/05:30am 18.8 15.1 2.2 33 7.6 NNW 11 17 6 9 1023.3 1023.2 0.0
20/05:00am 18.7 14.6 2.1 33 7.5 NNW 13 17 7 9 1023.0 1022.9 0.0
20/04:30am 19.5 15.3 1.5 30 8.2 NNE 13 20 7 11 1022.8 1022.7 0.0
20/04:00am 20.5 15.5 1.4 28 8.7 NE 17 24 9 13 1022.5 1022.4 0.0
20/03:30am 20.4 15.7 0.8 27 8.8 NE 15 20 8 11 1022.5 1022.4 0.0
20/03:00am 20.6 16.2 0.4 26 9.0 NNE 13 20 7 11 1022.5 1022.4 0.0
20/02:30am 20.8 15.3 0.6 26 9.1 ENE 19 30 10 16 1022.5 1022.4 0.0
20/02:00am 20.8 14.8 1.1 27 8.9 ENE 22 28 12 15 1022.3 1022.2 0.0
20/01:30am 20.3 15.0 1.7 29 8.5 ENE 19 24 10 13 1022.5 1022.4 0.0
20/01:00am 20.2 15.2 1.6 29 8.5 ENE 17 20 9 11 1022.5 1022.4 0.0
20/12:30am 20.5 15.1 1.4 28 8.7 ENE 19 24 10 13 1022.6 1022.5 0.0
20/12:00am 20.8 15.8 1.6 28 8.8 NE 17 20 9 11 1022.8 1022.7 0.0
 
Date/Time
WST
Temp
°C
App
Temp
°C
Dew
Point
°C
Rel
Hum
%
Delta-T
°C
Wind Press
QNH
hPa
Press
MSL
hPa
Rain since
9am
mm
Dir  Spd
km/h
Gust
km/h
Spd
kts
Gust
kts
19/11:30pm 21.3 16.4 2.1 28 8.9 ENE 17 22 9 12 1022.8 1022.7 0.0
19/11:00pm 21.4 16.9 2.2 28 8.9 ENE 15 19 8 10 1022.9 1022.8 0.0
19/10:30pm 22.0 17.5 2.2 27 9.3 ENE 15 19 8 10 1023.2 1023.1 0.0
19/10:00pm 22.1 17.9 1.7 26 9.5 ENE 13 17 7 9 1023.3 1023.2 0.0
19/09:30pm 22.6 18.5 2.1 26 9.7 ENE 13 17 7 9 1023.4 1023.3 0.0
19/09:00pm 22.6 18.5 2.1 26 9.6 ENE 13 17 7 9 1023.3 1023.2 0.0
19/08:30pm 22.6 18.1 2.1 26 9.7 ENE 15 19 8 10 1023.1 1023.0 0.0
19/08:00pm 22.2 18.5 2.3 27 9.3 E 11 13 6 7 1023.0 1022.9 0.0
19/07:30pm 22.4 19.2 3.0 28 9.3 E 9 13 5 7 1022.8 1022.7 0.0
19/07:00pm 24.2 20.1 2.4 24 10.4 E 13 13 7 7 1022.5 1022.4 0.0
19/06:30pm 25.1 21.8 2.5 23 10.9 ENE 9 13 5 7 1022.2 1022.1 0.0
19/06:00pm 26.5 22.7 1.7 20 11.9 ENE 11 13 6 7 1021.9 1021.8 0.0
19/05:30pm 27.9 23.7 1.4 18 12.8 E 13 19 7 10 1021.7 1021.6 0.0
19/05:00pm 28.7 24.2 2.1 18 13.0 E 15 24 8 13 1021.3 1021.2 0.0
19/04:30pm 29.3 25.5 1.7 17 13.5 NE 11 17 6 9 1021.3 1021.2 0.0
19/04:00pm 29.7 26.0 2.1 17 13.6 ENE 11 20 6 11 1021.2 1021.1 0.0
19/03:30pm 29.6 25.2 2.8 18 13.4 NE 15 22 8 12 1021.2 1021.1 0.0
19/03:00pm 29.8 26.1 2.1 17 13.7 NE 11 19 6 10 1021.3 1021.2 0.0
19/02:30pm 29.5 24.6 1.9 17 13.6 ENE 17 24 9 13 1021.3 1021.2 0.0
19/02:00pm 29.3 25.2 2.5 18 13.3 E 13 28 7 15 1021.5 1021.4 0.0
19/01:30pm 29.2 24.4 2.5 18 13.3 E 17 28 9 15 1021.8 1021.7 0.0
19/01:00pm 28.8 24.2 3.6 20 12.7 NE 17 24 9 13 1022.3 1022.2 0.0
19/12:30pm 28.5 23.8 3.4 20 12.6 E 17 24 9 13 1022.9 1022.8 0.0
19/12:00pm 28.5 24.5 4.7 22 12.2 NNE 15 24 8 13 1023.5 1023.4 0.0
19/11:30am 27.4 23.7 4.5 23 11.6 NNE 13 22 7 12 1023.8 1023.7 0.0
19/11:00am 26.6 22.2 5.0 25 11.0 NNE 17 24 9 13 1024.2 1024.1 0.0
19/10:30am 26.2 21.2 4.6 25 10.9 NNE 20 26 11 14 1024.4 1024.3 0.0
19/10:00am 25.9 21.0 4.9 26 10.6 NNE 20 32 11 17 1024.6 1024.5 0.0
19/09:30am 24.4 19.7 5.2 29 9.7 NNE 19 30 10 16 1024.8 1024.7 0.0
19/09:00am 23.2 18.9 5.2 31 9.0 NNE 17 22 9 12 1025.0 1024.9 0.0
19/08:30am 21.8 17.7 4.4 32 8.5 NE 15 22 8 12 1025.2 1025.1 0.0
19/08:00am 20.5 16.7 4.1 34 7.9 NNE 13 19 7 10 1025.1 1025.0 0.0
19/07:30am 19.5 15.6 3.6 35 7.5 NNE 13 19 7 10 1024.8 1024.7 0.0
19/07:00am 19.3 15.0 3.1 34 7.5 NE 15 20 8 11 1024.4 1024.3 0.0
19/06:30am 19.5 14.2 2.8 33 7.8 NE 20 32 11 17 1024.0 1023.9 0.0
19/06:00am 19.8 14.6 2.6 32 8.0 NE 19 28 10 15 1023.7 1023.6 0.0
19/05:30am 20.2 15.0 2.5 31 8.2 NE 19 28 10 15 1023.5 1023.4 0.0
19/05:00am 20.3 14.9 2.2 30 8.3 ENE 20 28 11 15 1023.3 1023.2 0.0
19/04:30am 20.6 16.5 2.4 30 8.5 NE 13 24 7 13 1023.2 1023.1 0.0
19/04:00am 19.6 16.6 2.0 31 8.0 N 7 13 4 7 1023.0 1022.9 0.0
19/03:30am 20.7 17.7 2.0 29 8.7 NE 7 15 4 8 1023.0 1022.9 0.0
19/03:00am 20.4 17.4 1.8 29 8.5 NW 7 15 4 8 1023.0 1022.9 0.0
19/02:30am 21.2 17.7 1.0 26 9.2 NNE 9 19 5 10 1023.0 1022.9 0.0
19/02:00am 22.6 19.1 1.0 24 9.9 ENE 9 19 5 10 1022.9 1022.8 0.0
19/01:30am 22.8 18.9 1.2 24 10.0 ENE 11 19 6 10 1022.9 1022.8 0.0
19/01:00am 23.2 18.1 0.9 23 10.3 ENE 17 24 9 13 1022.8 1022.7 0.0
19/12:30am 23.9 18.4 0.9 22 10.7 ENE 19 28 10 15 1022.9 1022.8 0.0
19/12:00am 24.6 19.1 0.8 21 11.1 ENE 19 30 10 16 1022.9 1022.8 0.0
 
Date/Time
WST
Temp
°C
App
Temp
°C
Dew
Point
°C
Rel
Hum
%
Delta-T
°C
Wind Press
QNH
hPa
Press
MSL
hPa
Rain since
9am
mm
Dir  Spd
km/h
Gust
km/h
Spd
kts
Gust
kts
18/11:30pm 24.2 19.9 1.2 22 10.8 ENE 13 19 7 10 1023.1 1023.0 0.0
18/11:00pm 24.7 20.0 0.9 21 11.1 ENE 15 22 8 12 1023.3 1023.2 0.0
18/10:30pm 24.8 20.2 1.7 22 11.0 ENE 15 20 8 11 1023.5 1023.4 0.0
18/10:00pm 25.3 19.9 1.4 21 11.3 ENE 19 28 10 15 1023.6 1023.5 0.0
18/09:30pm 25.7 20.5 2.4 22 11.3 E 19 28 10 15 1023.6 1023.5 0.0
18/09:00pm 26.0 20.9 3.3 23 11.1 ENE 19 28 10 15 1023.6 1023.5 0.0
18/08:30pm 26.5 21.3 3.7 23 11.4 ENE 20 26 11 14 1023.4 1023.3 0.0
18/08:00pm 26.9 22.1 4.6 24 11.3 ENE 19 24 10 13 1023.3 1023.2 0.0
18/07:30pm 27.7 22.9 4.7 23 11.8 E 19 24 10 13 1023.2 1023.1 0.0
18/07:00pm 28.2 24.1 4.5 22 12.1 E 15 20 8 11 1022.8 1022.7 0.0
18/06:30pm 27.5 23.8 4.5 23 11.7 ESE 13 15 7 8 1022.5 1022.4 0.0
18/06:00pm 29.5 25.5 4.9 21 12.7 E 15 20 8 11 1022.3 1022.2 0.0
18/05:30pm 30.8 26.0 4.5 19 13.7 E 19 24 10 13 1022.0 1021.9 0.0
18/05:00pm 31.8 28.1 4.6 18 14.2 ENE 13 22 7 12 1021.7 1021.6 0.0
18/04:30pm 32.2 28.4 4.1 17 14.6 SE 13 22 7 12 1021.7 1021.6 0.0
18/04:00pm 32.7 28.8 3.6 16 15.0 ESE 13 20 7 11 1021.7 1021.6 0.0
18/03:30pm 32.8 27.8 3.7 16 15.1 E 19 24 10 13 1021.8 1021.7 0.0
18/03:00pm 32.9 29.1 3.8 16 15.1 ENE 13 20 7 11 1021.9 1021.8 0.0
18/02:30pm 32.9 28.8 4.6 17 14.9 NE 15 24 8 13 1022.0 1021.9 0.0
18/02:00pm 32.7 28.0 5.3 18 14.5 E 19 28 10 15 1022.1 1022.0 0.0
18/01:30pm 32.5 28.1 6.7 20 14.0 ENE 19 32 10 17 1022.4 1022.3 0.0
18/01:00pm 32.4 28.4 6.6 20 13.9 E 17 28 9 15 1022.7 1022.6 0.0
18/12:30pm 31.3 28.0 6.4 21 13.4 NE 13 24 7 13 1023.4 1023.3 0.0
18/12:00pm 30.1 25.7 6.7 23 12.5 ENE 19 26 10 14 1023.8 1023.7 0.0
18/11:30am 29.4 24.8 6.7 24 12.1 ENE 20 30 11 16 1024.3 1024.2 0.0
18/11:00am 28.9 24.6 6.9 25 11.7 NE 19 28 10 15 1024.7 1024.6 0.0
18/10:30am 27.7 24.0 6.5 26 11.2 NE 15 28 8 15 1025.0 1024.9 0.0
18/10:00am 27.1 24.7 7.0 28 10.6 NE 9 15 5 8 1025.2 1025.1 0.0
18/09:30am 25.5 21.0 7.1 31 9.7 NE 20 33 11 18 1025.1 1025.0 0.0
18/09:03am 24.5 18.4 6.7 32 9.2 NE 28 46 15 25 1024.7 1024.6 0.0
18/09:00am 24.7 19.0 6.9 32 9.2 NE 26 43 14 23 1024.8 1024.7 0.0
18/08:30am 23.7 17.6 6.5 33 8.9 ENE 28 43 15 23 1024.7 1024.6 0.0
18/08:02am 23.1 17.0 6.8 35 8.4 ENE 28 46 15 25 1024.5 1024.4 0.0
18/08:00am 23.0 16.9 6.7 35 8.4 ENE 28 39 15 21 1024.6 1024.5 0.0
18/07:31am 22.3 15.9 6.9 37 7.9 ENE 30 48 16 26 1024.4 1024.3 0.0
18/07:30am 22.3 15.9 6.9 37 7.9 ENE 30 46 16 25 1024.4 1024.3 0.0
18/07:28am 22.2 16.1 6.8 37 7.9 ENE 28 46 15 25 1024.4 1024.3 0.0
18/07:00am 21.8 16.1 6.9 38 7.6 ENE 26 43 14 23 1024.2 1024.1 0.0
18/06:30am 21.6 16.3 6.7 38 7.6 ENE 24 44 13 24 1024.1 1024.0 0.0
18/06:00am 21.8 16.4 6.5 37 7.8 ENE 24 35 13 19 1023.9 1023.8 0.0
18/05:30am 22.3 16.9 6.5 36 8.1 ENE 24 37 13 20 1023.9 1023.8 0.0
18/05:00am 22.9 16.8 6.6 35 8.3 ENE 28 41 15 22 1023.6 1023.5 0.0
18/04:30am 22.9 16.3 6.2 34 8.5 ENE 30 43 16 23 1023.4 1023.3 0.0
18/04:00am 23.3 17.1 6.1 33 8.7 ENE 28 43 15 23 1023.3 1023.2 0.0
18/03:30am 23.3 17.1 6.1 33 8.8 ENE 28 39 15 21 1022.9 1022.8 0.0
18/03:04am 23.6 17.4 6.0 32 9.0 ENE 28 46 15 25 1022.7 1022.6 0.0
18/03:00am 23.6 17.0 6.0 32 8.9 ENE 30 46 16 25 1022.7 1022.6 0.0
18/02:46am 23.7 16.7 6.0 32 9.0 ENE 32 50 17 27 1022.7 1022.6 0.0
18/02:30am 23.5 16.8 5.4 31 9.1 ENE 30 39 16 21 1022.8 1022.7 0.0
18/02:00am 23.8 17.9 5.7 31 9.2 ENE 26 37 14 20 1023.0 1022.9 0.0
18/01:30am 24.1 17.4 5.5 30 9.4 E 30 41 16 22 1023.1 1023.0 0.0
18/01:00am 24.4 18.4 5.2 29 9.7 E 26 37 14 20 1023.2 1023.1 0.0
18/12:30am 24.7 18.6 5.0 28 9.9 E 26 35 14 19 1023.3 1023.2 0.0
18/12:00am 24.9 19.3 5.2 28 9.9 E 24 33 13 18 1023.3 1023.2 0.0
 
Date/Time
WST
Temp
°C
App
Temp
°C
Dew
Point
°C
Rel
Hum
%
Delta-T
°C
Wind Press
QNH
hPa
Press
MSL
hPa
Rain since
9am
mm
Dir  Spd
km/h
Gust
km/h
Spd
kts
Gust
kts
17/11:30pm 25.3 19.2 5.0 27 10.3 E 26 37 14 20 1023.4 1023.3 0.0
17/11:00pm 25.4 19.6 4.5 26 10.4 E 24 33 13 18 1023.5 1023.4 0.0
17/10:30pm 25.9 20.1 4.4 25 10.8 E 24 33 13 18 1023.6 1023.5 0.0
17/10:00pm 26.1 20.7 4.6 25 10.8 E 22 33 12 18 1023.6 1023.5 0.0
17/09:30pm 26.9 20.6 4.0 23 11.5 E 26 41 14 22 1023.3 1023.2 0.0
17/09:00pm 27.2 21.8 4.3 23 11.5 E 22 33 12 18 1023.1 1023.0 0.0
17/08:30pm 27.5 22.7 4.5 23 11.7 E 19 26 10 14 1022.9 1022.8 0.0
17/08:00pm 26.7 22.3 4.5 24 11.2 ESE 17 20 9 11 1022.7 1022.6 0.0
17/07:30pm 26.9 23.2 4.6 24 11.3 ESE 13 17 7 9 1022.6 1022.5 0.0
17/07:00pm 26.4 23.1 4.8 25 10.9 ESE 11 15 6 8 1022.4 1022.3 0.0
17/06:30pm 27.5 23.8 4.5 23 11.7 SE 13 17 7 9 1022.0 1021.9 0.0
17/06:00pm 29.2 24.7 4.0 20 12.8 ESE 17 22 9 12 1021.6 1021.5 0.0
17/05:30pm 30.7 25.7 4.4 19 13.6 ESE 20 32 11 17 1021.3 1021.2 0.0
17/05:00pm 31.6 26.0 5.2 19 13.9 ESE 24 32 13 17 1021.0 1020.9 0.0
17/04:30pm 32.3 28.5 5.7 19 14.2 E 15 24 8 13 1021.0 1020.9 0.0

Latest Capital City Observations: Canberra | Sydney | Melbourne | Brisbane | Adelaide | Perth | Hobart | Darwin

Other formats

Comma delimited format used in spreadsheet applications
http://www.bom.gov.au/fwo/IDW60901/IDW60901.94612.axf

JavaScript Object Notation format (JSON) in row-major order
http://www.bom.gov.au/fwo/IDW60901/IDW60901.94612.json

Data quality

Most of these data are generated automatically and are frequently updated. Quality checks on data are not normally performed. It is possible for incorrect values to appear. Refer to information at About Latest Weather Observations and please check the disclaimer before using these data.